Gambell Airport
PAGM : now visible

Airfield :











YOU CAN JOIN US ON...

 
LOGIN :

Register | Disclaimer

   EN    FR    IT 

 









Legend :    VFR   Marginal VFR   IFR   Intensive IFR   Very Intensive IFR
Visi :
Ceiling :
>= 8 km
>= 3000ft
5 to 8 km
1000 to 3000 ft
1500m to 5 km
500 to 1000 ft
800 to 1500m
200 to 500 ft
< 800m
< 200 ft
Symbols :   Thunderstorms  Fog  Heavy snow  Heavy precipitations  Wind > 20 kt






- Airport Elevation : 27 ft
- IATA code : GAM


PAGM - Gambell

CURRENT METAR :
  • 261207Z AUTO 36016KT 10SM BKN014 BKN023 OVC027 01/M01 A2987 RMK AO2 RAE04 P0000 FZRANO

EXPIRED METARs :
  • 261156Z AUTO 35016KT 9SM -RA SCT014 OVC027 01/M01 A2986 RMK AO2 RAB36UPB51E52SNB38E51 SLP118 P0000 60000 T00111011 10011 20006 53001 FZRANO
  • 261112Z AUTO 36018KT 10SM SCT012 OVC027 01/M01 A2986 RMK AO2 FZRANO
  • 261056Z AUTO 01019G22KT 10SM BKN012 OVC027 01/M01 A2986 RMK AO2 UPB05E06RAB06E15SNE05 SLP117 P0000 T00111011 FZRANO
  • 260956Z AUTO 36016KT 9SM -SN OVC012 01/M01 A2986 RMK AO2 RAB14E38UPB24E39SNE14B39 SLP118 P0000 T00111011 FZRANO

TAF N/A
PAZA FIR / North America



MET'MAP, your aeronautical weather chart ! - Copyright ORBIFLY December 2007 - Disclaimer

ORBIFLY MET'MAP TEAM :

Programming & Development : Alexandra Zaïnal
Concept & original design : Baudouin d'Aumeries
Assistance for programming : Marc-Olivier Méhu
Technical & hardware support : Manuel Goepfert

Contact : metmap@orbifly.com




SOURCES & CREDITS :

   NOAA       Earth
Advisory